Time;durP1;ratioP1;P1;durP2;ratioP2;P2;SDS_P1;SDS_P2;PMS_P1;PMS_P2;Temp;Humidity;BMP_temperature;BMP_pressure;BME280_temperature;BME280_humidity;BME280_pressure;Samples;Min_cycle;Max_cycle;Signal;HPM_P1;HPM_P2
2020/12/13 00:03:32;;;;;;;1999.90;999.90;;;;;;;4.24;79.37;100204.94;15850369;28;20047;-59
2020/12/13 00:11:05;;;;;;;1999.90;999.90;;;;;;;4.27;79.78;100217.31;15837589;28;20051;-62
2020/12/13 00:18:37;;;;;;;1999.90;999.90;;;;;;;4.24;79.97;100221.50;15839749;28;20051;-61
2020/12/13 00:26:12;;;;;;;1999.90;999.90;;;;;;;4.09;80.65;100229.25;15867867;28;20509;-60
2020/12/13 00:33:44;;;;;;;1999.90;999.90;;;;;;;4.03;81.41;100234.84;15868068;28;20048;-61
2020/12/13 00:41:18;;;;;;;1999.90;999.90;;;;;;;3.98;81.39;100237.69;15867395;28;20515;-59
2020/12/13 00:48:50;;;;;;;1999.90;999.90;;;;;;;4.07;81.55;100242.53;15848261;28;20044;-61
2020/12/13 00:56:26;;;;;;;1999.90;999.90;;;;;;;4.12;81.30;100256.25;15848530;28;20031;-60
2020/12/13 01:04:00;;;;;;;1999.90;999.90;;;;;;;4.20;81.09;100255.56;15831969;28;20104;-59
2020/12/13 01:11:37;;;;;;;1999.90;999.90;;;;;;;4.18;81.01;100264.16;15849614;28;20051;-61
2020/12/13 01:19:12;;;;;;;1999.90;999.90;;;;;;;4.22;81.41;100261.59;15866591;28;20052;-62
2020/12/13 01:26:47;;;;;;;1999.90;999.90;;;;;;;4.34;80.57;100271.06;15834495;28;20066;-59
2020/12/13 01:34:23;;;;;;;1999.90;999.90;;;;;;;4.14;81.39;100281.63;15844847;28;20035;-59
2020/12/13 01:42:00;;;;;;;1999.90;999.90;;;;;;;4.02;82.17;100291.19;15877891;28;20048;-60
2020/12/13 01:49:37;;;;;;;1999.90;999.90;;;;;;;4.10;82.38;100289.69;15859020;28;20036;-60
2020/12/13 01:57:12;;;;;;;1999.90;999.90;;;;;;;4.03;82.25;100300.28;15877345;28;20044;-59
2020/12/13 02:04:47;;;;;;;1999.90;999.90;;;;;;;4.08;82.05;100296.66;15876409;28;20043;-61
2020/12/13 02:12:21;;;;;;;1999.90;999.90;;;;;;;4.24;82.08;100309.88;15875854;28;20044;-60
2020/12/13 02:19:56;;;;;;;1999.90;999.90;;;;;;;4.36;81.19;100314.94;15857753;28;20046;-62
2020/12/13 02:27:29;;;;;;;;;;;;;;;4.44;80.93;100314.25;15874983;28;20079;-59
2020/12/13 02:35:03;;;;;;;1999.90;999.90;;;;;;;4.37;81.79;100319.34;15874827;28;19959;-61
2020/12/13 02:42:37;;;;;;;1999.90;999.90;;;;;;;4.37;81.60;100319.34;15839473;28;20093;-59
2020/12/13 02:50:10;;;;;;;1999.90;999.90;;;;;;;4.42;81.50;100335.84;15873382;28;20067;-61
2020/12/13 02:57:44;;;;;;;1999.90;999.90;;;;;;;4.52;81.58;100330.16;15855203;28;20461;-61
2020/12/13 03:05:17;;;;;;;1999.90;999.90;;;;;;;4.68;81.19;100332.66;15873421;28;20050;-59
2020/12/13 03:12:50;;;;;;;1999.90;999.90;;;;;;;4.50;81.04;100340.69;15854303;28;20134;-59
2020/12/13 03:20:23;;;;;;;1999.90;999.90;;;;;;;4.45;80.89;100339.94;15871734;28;20043;-59
2020/12/13 03:27:56;;;;;;;1999.90;999.90;;;;;;;4.11;83.10;100345.75;15853490;28;20040;-61
2020/12/13 03:35:29;;;;;;;1999.90;999.90;;;;;;;4.27;82.57;100352.66;15870466;28;20058;-61
2020/12/13 03:43:02;;;;;;;1999.90;999.90;;;;;;;4.29;82.82;100344.91;15869182;28;20039;-61
2020/12/13 03:50:40;;;;;;;1999.90;999.90;;;;;;;4.64;81.48;100354.56;15868842;28;20047;-59
2020/12/13 03:58:14;;;;;;;1999.90;999.90;;;;;;;5.04;79.77;100366.84;15834421;28;20083;-59
2020/12/13 04:05:47;;;;;;;1999.90;999.90;;;;;;;4.77;80.06;100369.53;15833361;28;20032;-58
2020/12/13 04:13:20;;;;;;;1999.90;999.90;;;;;;;4.87;80.07;100377.66;15811025;28;20043;-61
2020/12/13 04:20:53;;;;;;;1999.90;999.90;;;;;;;4.76;80.04;100379.78;15868355;28;20094;-61
2020/12/13 04:28:27;;;;;;;1999.90;999.90;;;;;;;4.58;81.10;100392.50;15849894;28;20084;-62
2020/12/13 04:36:00;;;;;;;1999.90;999.90;;;;;;;4.62;81.66;100401.03;15849686;28;20035;-61
2020/12/13 04:43:33;;;;;;;1999.90;999.90;;;;;;;4.59;81.28;100404.41;15849547;28;20048;-60
2020/12/13 04:51:08;;;;;;;1999.90;999.90;;;;;;;4.71;81.09;100414.97;15866953;28;20450;-58
2020/12/13 04:58:43;;;;;;;1999.90;999.90;;;;;;;4.51;81.92;100411.41;15849159;28;20117;-61
2020/12/13 05:06:17;;;;;;;1999.90;999.90;;;;;;;4.74;80.98;100420.72;15850512;28;20035;-59
2020/12/13 05:13:50;;;;;;;;;;;;;;;4.60;82.04;100425.38;15880341;28;20047;-59
2020/12/13 05:21:24;;;;;;;1999.90;999.90;;;;;;;4.55;82.08;100419.91;15882605;28;19920;-61
2020/12/13 05:28:59;;;;;;;1999.90;999.90;;;;;;;4.72;81.89;100430.44;15878769;28;20298;-60
2020/12/13 05:36:37;;;;;;;1999.90;999.90;;;;;;;4.78;81.21;100429.22;15860128;28;20043;-59
2020/12/13 05:44:30;;;;;;;1999.90;999.90;;;;;;;4.83;81.54;100429.97;15859442;28;20039;-61
2020/12/13 05:52:04;;;;;;;1999.90;999.90;;;;;;;5.04;80.85;100435.97;15877288;28;20055;-60
2020/12/13 05:59:37;;;;;;;1999.90;999.90;;;;;;;4.87;81.39;100441.25;15876887;28;20112;-62
2020/12/13 06:07:12;;;;;;;1999.90;999.90;;;;;;;4.84;81.56;100458.44;15859435;28;20050;-59
2020/12/13 06:14:50;;;;;;;1999.90;999.90;;;;;;;4.86;81.45;100470.00;15874835;28;20035;-62
2020/12/13 06:22:23;;;;;;;1999.90;999.90;;;;;;;4.77;81.32;100472.63;15857840;28;20051;-62
2020/12/13 06:29:57;;;;;;;1999.90;999.90;;;;;;;4.95;81.17;100470.16;15857855;28;20397;-59
2020/12/13 06:37:30;;;;;;;1999.90;999.90;;;;;;;5.01;80.84;100485.56;15876157;28;20077;-61
2020/12/13 06:45:06;;;;;;;1999.90;999.90;;;;;;;5.10;79.36;100506.66;15856354;28;20052;-60
2020/12/13 06:52:40;;;;;;;1999.90;999.90;;;;;;;5.33;79.11;100509.63;15873726;28;20805;-61
2020/12/13 07:00:14;;;;;;;1999.90;999.90;;;;;;;4.92;81.10;100511.13;15854911;28;20048;-60
2020/12/13 07:07:52;;;;;;;1999.90;999.90;;;;;;;5.07;80.44;100520.28;15854736;28;20036;-60
2020/12/13 07:15:33;;;;;;;1999.90;999.90;;;;;;;5.05;80.47;100539.13;15873806;28;20036;-61
2020/12/13 07:23:06;;;;;;;1999.90;999.90;;;;;;;5.26;79.98;100547.91;15836238;28;20051;-60
2020/12/13 07:30:40;;;;;;;1999.90;999.90;;;;;;;5.23;79.99;100546.59;15870126;28;20051;-60
2020/12/13 07:38:14;;;;;;;1999.90;999.90;;;;;;;5.53;78.34;100555.50;15871039;28;20052;-60
2020/12/13 07:45:47;;;;;;;1999.90;999.90;;;;;;;5.82;77.27;100574.63;15870783;28;20039;-61
2020/12/13 07:53:24;;;;;;;1999.90;999.90;;;;;;;5.53;78.22;100574.88;15852293;28;20070;-58
2020/12/13 08:01:10;;;;;;;1999.90;999.90;;;;;;;5.21;80.67;100566.25;15858918;28;20489;-61
2020/12/13 08:08:43;;;;;;;1999.90;999.90;;;;;;;5.36;79.38;100578.19;15876482;28;20056;-59
2020/12/13 08:16:17;;;;;;;1999.90;999.90;;;;;;;5.58;77.97;100608.81;15871029;28;20054;-58
2020/12/13 08:23:55;;;;;;;1999.90;999.90;;;;;;;5.41;79.47;100612.13;15868991;28;20036;-61
2020/12/13 08:31:30;;;;;;;1999.90;999.90;;;;;;;5.62;79.20;100625.63;15869088;28;20447;-61
2020/12/13 08:39:06;;;;;;;1999.90;999.90;;;;;;;5.50;79.38;100626.09;15849655;28;20543;-61
2020/12/13 08:46:43;;;;;;;1999.90;999.90;;;;;;;5.32;80.03;100643.56;15843563;28;20040;-60
2020/12/13 08:54:16;;;;;;;1999.90;999.90;;;;;;;5.44;79.84;100644.75;15797975;28;20678;-61
2020/12/13 09:01:57;;;;;;;1999.90;999.90;;;;;;;5.65;78.82;100649.97;15849095;28;20095;-61
2020/12/13 09:09:31;;;;;;;1999.90;999.90;;;;;;;5.37;79.32;100660.06;15810876;28;20058;-59
2020/12/13 09:17:04;;;;;;;;;;;;;;;5.62;79.03;100667.97;15836783;28;20044;-61
2020/12/13 09:24:37;;;;;;;;;;;;;;;5.50;79.01;100673.97;15826560;28;19966;-60
2020/12/13 09:32:11;;;;;;;1999.90;999.90;;;;;;;5.78;78.43;100686.00;15836506;28;19920;-60
2020/12/13 09:39:45;;;;;;;1999.90;999.90;;;;;;;5.82;77.88;100677.91;15823491;28;20485;-62
2020/12/13 09:47:19;;;;;;;1999.90;999.90;;;;;;;5.86;78.05;100675.38;15813782;28;20032;-62
2020/12/13 09:54:52;;;;;;;1999.90;999.90;;;;;;;5.91;78.10;100678.88;15851063;28;20047;-60
2020/12/13 10:02:25;;;;;;;1999.90;999.90;;;;;;;5.85;78.04;100685.63;15876301;28;20343;-58
2020/12/13 10:09:58;;;;;;;1999.90;999.90;;;;;;;5.75;77.82;100681.06;15873828;28;20130;-59
2020/12/13 10:17:32;;;;;;;1999.90;999.90;;;;;;;6.26;77.62;100688.53;15875861;28;20119;-59
2020/12/13 10:25:06;;;;;;;1999.90;999.90;;;;;;;6.05;77.68;100690.03;15857545;28;20097;-60
2020/12/13 10:32:40;;;;;;;1999.90;999.90;;;;;;;6.09;76.79;100682.75;15874917;28;20043;-60
2020/12/13 10:40:12;;;;;;;1999.90;999.90;;;;;;;6.69;73.78;100699.38;15874805;28;20043;-62
2020/12/13 10:47:45;;;;;;;1999.90;999.90;;;;;;;6.71;73.65;100697.09;15820672;28;20560;-60
2020/12/13 10:55:18;;;;;;;1999.90;999.90;;;;;;;6.92;73.74;100694.75;15854807;28;20412;-61
2020/12/13 11:02:54;;;;;;;1999.90;999.90;;;;;;;7.08;72.21;100698.81;15873020;28;20096;-62
2020/12/13 11:10:27;;;;;;;1999.90;999.90;;;;;;;6.65;74.15;100709.41;15872686;28;20074;-61
2020/12/13 11:18:00;;;;;;;1999.90;999.90;;;;;;;6.77;74.31;100714.47;15868155;28;20042;-60
2020/12/13 11:25:33;;;;;;;1999.90;999.90;;;;;;;6.81;73.92;100713.56;15847865;28;20039;-61
2020/12/13 11:33:07;;;;;;;1999.90;999.90;;;;;;;6.43;76.28;100723.16;15870761;28;20058;-58
2020/12/13 11:40:40;;;;;;;1999.90;999.90;;;;;;;6.51;76.00;100717.72;15871882;28;20043;-65
2020/12/13 11:48:14;;;;;;;1999.90;999.90;;;;;;;6.53;76.01;100722.97;15852281;28;20066;-58
2020/12/13 11:55:47;;;;;;;1999.90;999.90;;;;;;;6.68;74.85;100714.38;15870103;28;20039;-60
2020/12/13 12:03:20;;;;;;;1999.90;999.90;;;;;;;6.60;75.41;100717.84;15851997;28;20040;-61
2020/12/13 12:10:53;;;;;;;1999.90;999.90;;;;;;;6.53;75.16;100720.19;15847771;28;20054;-59
2020/12/13 12:18:27;;;;;;;1999.90;999.90;;;;;;;7.14;73.21;100724.53;15862132;28;20150;-59
2020/12/13 12:25:59;;;;;;;1999.90;999.90;;;;;;;6.60;74.71;100726.16;15857482;28;20040;-58
2020/12/13 12:33:33;;;;;;;1999.90;999.90;;;;;;;6.88;74.23;100721.47;15866882;28;20039;-57
2020/12/13 12:41:05;;;;;;;1999.90;999.90;;;;;;;6.90;74.16;100733.91;15846846;28;20154;-59
2020/12/13 12:48:39;;;;;;;1999.90;999.90;;;;;;;7.05;72.40;100737.47;15864348;28;20101;-60
2020/12/13 12:56:11;;;;;;;;;;;;;;;7.19;73.10;100750.22;15866608;28;20044;-59
2020/12/13 13:03:47;;;;;;;1999.90;999.90;;;;;;;7.26;72.70;100748.97;15867061;28;19920;-61
2020/12/13 13:11:20;;;;;;;1999.90;999.90;;;;;;;6.85;74.59;100750.63;15864146;28;20067;-59
2020/12/13 13:18:55;;;;;;;1999.90;999.90;;;;;;;6.97;73.26;100746.50;15845215;28;20413;-58
2020/12/13 13:26:28;;;;;;;1999.90;999.90;;;;;;;6.76;74.93;100752.47;15872287;28;20301;-60
2020/12/13 13:34:01;;;;;;;1999.90;999.90;;;;;;;6.55;76.07;100763.13;15877777;28;20097;-60
2020/12/13 13:41:35;;;;;;;1999.90;999.90;;;;;;;6.93;74.35;100783.22;15855819;28;20045;-58
2020/12/13 13:57:01;;;;;;;1999.90;999.90;;;;;;;6.61;75.90;100786.84;15834390;28;20044;-61
2020/12/13 14:04:35;;;;;;;1999.90;999.90;;;;;;;7.09;74.21;100789.28;15895270;27;20043;-60
2020/12/13 14:12:07;;;;;;;1999.90;999.90;;;;;;;6.83;75.21;100811.13;15876970;28;20057;-59
2020/12/13 14:19:41;;;;;;;1999.90;999.90;;;;;;;6.69;76.20;100809.47;15853981;28;20052;-62
2020/12/13 14:27:13;;;;;;;1999.90;999.90;;;;;;;6.87;75.14;100811.34;15853749;28;20039;-63
2020/12/13 14:34:47;;;;;;;1999.90;999.90;;;;;;;6.69;75.59;100818.63;15837251;28;20100;-59
2020/12/13 14:42:20;;;;;;;1999.90;999.90;;;;;;;6.59;75.29;100816.03;15872692;28;20040;-61
2020/12/13 14:49:54;;;;;;;1999.90;999.90;;;;;;;6.34;76.22;100831.94;15868383;28;20046;-60
2020/12/13 14:57:27;;;;;;;1999.90;999.90;;;;;;;6.30;77.24;100839.22;15874762;28;20100;-61
2020/12/13 15:05:00;;;;;;;1999.90;999.90;;;;;;;6.23;77.66;100840.72;15854368;28;20370;-58
2020/12/13 15:12:33;;;;;;;;;;;;;;;6.45;77.65;100845.63;15837651;28;20386;-54
2020/12/13 15:20:06;;;;;;;1999.90;999.90;;;;;;;6.18;77.92;100844.41;15854525;28;19927;-60
2020/12/13 15:27:39;;;;;;;1999.90;999.90;;;;;;;6.28;77.52;100852.56;15852854;28;20031;-61
2020/12/13 15:35:12;;;;;;;1999.90;999.90;;;;;;;6.49;76.16;100849.47;15836287;28;20039;-59
2020/12/13 15:42:45;;;;;;;;;;;;;;;6.46;76.58;100853.69;15853597;28;20487;-61
2020/12/13 15:50:24;;;;;;;1999.90;999.90;;;;;;;6.27;77.77;100873.09;15861485;28;20030;-60
2020/12/13 15:57:56;;;;;;;1999.90;999.90;;;;;;;6.17;78.29;100873.25;15843065;28;20385;-58
2020/12/13 16:05:32;;;;;;;1999.90;999.90;;;;;;;6.32;77.50;100878.53;15829977;28;20062;-59
2020/12/13 16:13:05;;;;;;;1999.90;999.90;;;;;;;6.13;78.14;100887.97;15848951;28;20040;-57
2020/12/13 16:20:39;;;;;;;1999.90;999.90;;;;;;;6.44;77.13;100897.47;15848537;28;20048;-59
2020/12/13 16:28:12;;;;;;;1999.90;999.90;;;;;;;6.65;76.50;100912.66;15849098;28;20051;-59
2020/12/13 16:35:45;;;;;;;1999.90;999.90;;;;;;;6.63;75.54;100908.56;15847737;28;20400;-60
2020/12/13 16:43:33;;;;;;;1999.90;999.90;;;;;;;6.37;76.70;100908.16;15865211;28;20039;-58
2020/12/13 16:51:20;;;;;;;1999.90;999.90;;;;;;;6.17;78.13;100909.25;15865950;28;20071;-59
2020/12/13 16:58:52;;;;;;;1999.90;999.90;;;;;;;6.24;78.44;100912.47;15868003;28;20042;-59
2020/12/13 17:06:31;;;;;;;1999.90;999.90;;;;;;;6.32;77.98;100922.06;15858988;28;20036;-56
2020/12/13 17:14:04;;;;;;;1999.90;999.90;;;;;;;6.42;77.75;100921.91;15858973;28;20062;-57
2020/12/13 17:21:38;;;;;;;1999.90;999.90;;;;;;;6.05;79.56;100915.25;15867130;28;20043;-63
2020/12/13 17:29:11;;;;;;;1999.90;999.90;;;;;;;6.16;78.91;100927.00;15833692;28;20075;-62
2020/12/13 17:36:47;;;;;;;1999.90;999.90;;;;;;;6.18;79.60;100935.03;15873053;28;20050;-60
2020/12/13 17:44:22;;;;;;;1999.90;999.90;;;;;;;6.22;79.07;100942.44;15873168;28;20493;-60
2020/12/13 17:52:01;;;;;;;1999.90;999.90;;;;;;;6.58;77.22;100939.97;15868681;28;20123;-61
2020/12/13 17:59:35;;;;;;;1999.90;999.90;;;;;;;6.16;79.73;100946.41;15858079;28;20306;-59
2020/12/13 18:07:17;;;;;;;1999.90;999.90;;;;;;;6.22;79.70;100939.66;15855496;28;20040;-63
2020/12/13 18:14:56;;;;;;;1999.90;999.90;;;;;;;6.20;79.63;100943.84;15873429;28;20081;-58
2020/12/13 18:22:31;;;;;;;1999.90;999.90;;;;;;;6.08;81.34;100945.13;15854793;28;20138;-61
2020/12/13 18:30:04;;;;;;;1999.90;999.90;;;;;;;6.00;81.08;100956.84;15857237;28;20044;-56
2020/12/13 18:37:38;;;;;;;1999.90;999.90;;;;;;;6.24;79.80;100954.03;15872244;28;20489;-59
2020/12/13 18:45:10;;;;;;;1999.90;999.90;;;;;;;6.11;80.31;100959.50;15871327;28;20505;-55
2020/12/13 18:52:48;;;;;;;1999.90;999.90;;;;;;;6.44;79.07;100968.72;15873482;28;20048;-60
2020/12/13 19:00:22;;;;;;;1999.90;999.90;;;;;;;6.37;78.37;100974.66;15843887;28;20054;-61
2020/12/13 19:07:58;;;;;;;1999.90;999.90;;;;;;;6.25;79.64;100983.41;15868986;28;20034;-60
2020/12/13 19:15:31;;;;;;;1999.90;999.90;;;;;;;6.26;80.08;100982.28;15881682;28;20078;-60
2020/12/13 19:23:04;;;;;;;1999.90;999.90;;;;;;;6.16;80.74;100981.59;15849698;28;20047;-59
2020/12/13 19:30:39;;;;;;;1999.90;999.90;;;;;;;5.92;81.42;100981.59;15867958;28;20051;-65
2020/12/13 19:38:12;;;;;;;1999.90;999.90;;;;;;;5.91;82.56;100978.00;15821184;28;20101;-57
2020/12/13 19:45:45;;;;;;;1999.90;999.90;;;;;;;5.79;83.27;100983.13;15867202;28;20096;-63
2020/12/13 19:53:20;;;;;;;1999.90;999.90;;;;;;;5.98;81.54;100981.25;15867091;28;20054;-57
2020/12/13 20:00:54;;;;;;;1999.90;999.90;;;;;;;5.70;83.22;100982.94;15866146;28;20044;-60
2020/12/13 20:08:30;;;;;;;1999.90;999.90;;;;;;;5.73;83.09;100996.22;15868038;28;20114;-59
2020/12/13 20:16:15;;;;;;;1999.90;999.90;;;;;;;5.93;82.48;101003.47;15865475;28;20055;-60
2020/12/13 21:11:39;;;;;;;1999.90;999.90;;;;;;;6.45;80.25;101023.03;15861611;28;20648;-60
2020/12/13 21:19:12;;;;;;;1999.90;999.90;;;;;;;6.32;80.91;101030.16;15864807;28;20465;-59
2020/12/13 21:58:31;;;;;;;1999.90;999.90;;;;;;;6.48;80.97;101033.56;15858167;28;20044;-61
2020/12/13 22:29:36;;;;;;;1999.90;999.90;;;;;;;6.38;82.30;101036.47;15800267;28;20043;-59
2020/12/13 22:37:08;;;;;;;;;;;;;;;6.35;82.29;101035.91;15853580;28;20425;-61
2020/12/13 22:44:42;;;;;;;1999.90;999.90;;;;;;;6.14;82.36;101031.75;15871019;28;20408;-59
2020/12/13 22:52:15;;;;;;;1999.90;999.90;;;;;;;6.36;82.08;101034.00;15852623;28;20044;-61
2020/12/13 22:59:48;;;;;;;1999.90;999.90;;;;;;;6.35;82.10;101024.00;15853870;28;20050;-58
2020/12/13 23:07:21;;;;;;;1999.90;999.90;;;;;;;6.70;80.75;101027.44;15848602;28;20126;-60
2020/12/13 23:15:01;;;;;;;1999.90;999.90;;;;;;;6.66;80.81;101030.78;15848609;28;20035;-56
2020/12/13 23:22:34;;;;;;;1999.90;999.90;;;;;;;6.84;80.48;101031.91;15872116;28;20412;-54
2020/12/13 23:30:10;;;;;;;1999.90;999.90;;;;;;;6.93;79.84;101032.06;15864524;28;20050;-55
2020/12/13 23:37:43;;;;;;;1999.90;999.90;;;;;;;6.91;80.00;101024.06;15810329;28;20046;-59
2020/12/13 23:45:18;;;;;;;1999.90;999.90;;;;;;;6.81;80.51;101021.44;15859712;28;20050;-57
2020/12/13 23:52:51;;;;;;;1999.90;999.90;;;;;;;6.61;80.79;101024.50;15854100;28;20063;-58
